createdAt,value
2018-04-01T00:00:21.880Z,99136
2018-04-01T00:02:49.260Z,99135
2018-04-01T00:05:16.688Z,99129
2018-04-01T00:07:44.076Z,99137
2018-04-01T00:10:11.447Z,99138
2018-04-01T00:12:39.619Z,99126
2018-04-01T00:15:07.755Z,99135
2018-04-01T00:17:35.127Z,99138
2018-04-01T00:20:03.104Z,99145
2018-04-01T00:22:31.289Z,99138
2018-04-01T00:24:59.435Z,99150
2018-04-01T00:27:26.802Z,99142
2018-04-01T00:29:54.959Z,99150
2018-04-01T00:32:22.336Z,99145
2018-04-01T00:34:50.511Z,99145
2018-04-01T00:37:18.639Z,99155
2018-04-01T00:39:46.039Z,99147
2018-04-01T00:42:14.183Z,99148
2018-04-01T00:44:41.555Z,99155
2018-04-01T00:47:09.725Z,99154
2018-04-01T00:49:37.103Z,99146
2018-04-01T00:52:04.471Z,99151
2018-04-01T00:54:31.867Z,99159
2018-04-01T00:56:59.235Z,99153
2018-04-01T00:59:26.657Z,99161
2018-04-01T01:01:54.047Z,99147
2018-04-01T01:04:21.424Z,99152
2018-04-01T01:06:49.579Z,99149
2018-04-01T01:12:18.399Z,99150
2018-04-01T01:14:45.800Z,99162
2018-04-01T01:17:13.183Z,99159
2018-04-01T01:19:41.323Z,99150
2018-04-01T01:22:08.711Z,99159
2018-04-01T01:24:36.891Z,99154
2018-04-01T01:27:05.040Z,99142
2018-04-01T01:29:32.485Z,99156
2018-04-01T01:31:59.865Z,99145
2018-04-01T01:34:27.264Z,99147
2018-04-01T01:36:54.641Z,99136
2018-04-01T01:39:22.964Z,99142
2018-04-01T01:41:51.132Z,99144
2018-04-01T01:44:19.303Z,99139
2018-04-01T01:46:47.522Z,99142
2018-04-01T01:49:14.907Z,99133
2018-04-01T01:51:42.291Z,99138
2018-04-01T01:54:10.448Z,99140
2018-04-01T01:56:37.821Z,99147
2018-04-01T01:59:05.995Z,99131
2018-04-01T02:01:34.131Z,99135
2018-04-01T02:04:01.516Z,99150
2018-04-01T02:06:29.688Z,99138
2018-04-01T02:08:57.832Z,99144
2018-04-01T02:11:25.263Z,99144
2018-04-01T02:13:52.644Z,99133
2018-04-01T02:16:20.036Z,99143
2018-04-01T02:18:47.431Z,99136
2018-04-01T02:21:14.807Z,99145
2018-04-01T02:23:42.200Z,99136
2018-04-01T02:26:09.664Z,99137
2018-04-01T02:28:37.062Z,99134
2018-04-01T02:31:04.432Z,99135
2018-04-01T02:33:31.831Z,99141
2018-04-01T02:35:59.238Z,99141
2018-04-01T02:38:26.644Z,99139
2018-04-01T02:40:54.808Z,99151
2018-04-01T02:43:22.207Z,99149
2018-04-01T02:45:49.624Z,99138
2018-04-01T02:48:16.993Z,99149
2018-04-01T02:50:44.375Z,99150
2018-04-01T02:53:11.767Z,99135
2018-04-01T02:55:39.917Z,99144
2018-04-01T02:58:07.418Z,99143
2018-04-01T03:00:34.874Z,99145
2018-04-01T03:03:02.300Z,99146
2018-04-01T03:05:30.468Z,99154
2018-04-01T03:07:58.677Z,99143
2018-04-01T03:10:26.079Z,99145
2018-04-01T03:12:53.494Z,99140
2018-04-01T03:15:20.864Z,99137
2018-04-01T03:17:48.253Z,99139
2018-04-01T03:20:16.647Z,99135
2018-04-01T03:22:44.799Z,99140
2018-04-01T03:25:12.178Z,99139
2018-04-01T03:27:40.356Z,99140
2018-04-01T03:30:08.504Z,99140
2018-04-01T03:32:35.880Z,99135
2018-04-01T03:35:04.066Z,99141
2018-04-01T03:37:31.480Z,99136
2018-04-01T03:39:58.940Z,99138
2018-04-01T03:42:26.341Z,99142
2018-04-01T03:44:53.720Z,99136
2018-04-01T03:47:21.138Z,99126
2018-04-01T03:49:48.512Z,99131
2018-04-01T03:52:15.900Z,99139
2018-04-01T03:54:43.274Z,99137
2018-04-01T03:57:11.446Z,99154
2018-04-01T03:59:38.811Z,99151
2018-04-01T04:02:06.978Z,99161
2018-04-01T04:04:35.123Z,99154
2018-04-01T04:07:02.501Z,99161
2018-04-01T04:09:30.712Z,99174
2018-04-01T04:11:58.097Z,99170
2018-04-01T04:14:25.537Z,99170
2018-04-01T04:16:52.885Z,99173
2018-04-01T04:19:20.332Z,99182
2018-04-01T04:21:47.731Z,99189
2018-04-01T04:24:15.112Z,99174
2018-04-01T04:26:43.256Z,99178
2018-04-01T04:29:10.678Z,99193
2018-04-01T04:31:38.061Z,99188
2018-04-01T04:34:05.485Z,99188
2018-04-01T04:36:32.890Z,99187
2018-04-01T04:39:00.263Z,99185
2018-04-01T04:41:28.443Z,99206
2018-04-01T04:43:56.623Z,99205
2018-04-01T04:46:24.007Z,99207
2018-04-01T04:48:51.388Z,99210
2018-04-01T04:51:18.779Z,99209
2018-04-01T04:53:46.147Z,99214
2018-04-01T04:56:13.536Z,99213
2018-04-01T04:58:40.957Z,99217
2018-04-01T05:01:08.407Z,99233
2018-04-01T05:03:35.795Z,99235
2018-04-01T05:06:03.217Z,99240
2018-04-01T05:08:30.587Z,99235
2018-04-01T05:10:58.042Z,99224
2018-04-01T05:13:25.432Z,99226
2018-04-01T05:15:52.840Z,99226
2018-04-01T05:18:20.227Z,99240
2018-04-01T05:20:47.603Z,99224
2018-04-01T05:23:15.794Z,99243
2018-04-01T05:25:43.935Z,99236
2018-04-01T05:28:11.307Z,99239
2018-04-01T05:30:38.691Z,99242
2018-04-01T05:33:06.168Z,99231
2018-04-01T05:35:33.565Z,99240
2018-04-01T05:38:00.947Z,99249
2018-04-01T05:40:29.121Z,99244
2018-04-01T05:42:57.266Z,99260
2018-04-01T05:45:24.649Z,99251
2018-04-01T05:47:52.808Z,99268
2018-04-01T05:50:20.203Z,99268
2018-04-01T05:52:47.644Z,99279
2018-04-01T05:55:15.771Z,99271
2018-04-01T05:57:43.172Z,99278
2018-04-01T06:00:10.548Z,99274
2018-04-01T06:02:37.912Z,99284
2018-04-01T06:05:05.334Z,99270
2018-04-01T06:07:32.700Z,99265
2018-04-01T06:10:00.155Z,99270
2018-04-01T06:12:27.608Z,99269
2018-04-01T06:14:54.984Z,99268
2018-04-01T06:17:22.374Z,99270
2018-04-01T06:19:49.744Z,99287
2018-04-01T06:22:17.946Z,99279
2018-04-01T06:24:45.320Z,99280
2018-04-01T06:27:12.689Z,99276
2018-04-01T06:29:40.091Z,99279
2018-04-01T06:32:08.240Z,99289
2018-04-01T06:34:35.619Z,99276
2018-04-01T06:37:03.795Z,99293
2018-04-01T06:39:31.168Z,99282
2018-04-01T06:41:58.545Z,99282
2018-04-01T06:44:25.958Z,99288
2018-04-01T06:46:53.419Z,99286
2018-04-01T06:49:20.806Z,99289
2018-04-01T06:51:48.192Z,99284
2018-04-01T06:54:15.578Z,99308
2018-04-01T06:56:43.739Z,99306
2018-04-01T06:59:11.892Z,99306
2018-04-01T07:01:39.267Z,99295
2018-04-01T07:04:07.503Z,99314
2018-04-01T07:06:34.898Z,99310
2018-04-01T07:09:03.039Z,99300
2018-04-01T07:11:30.513Z,99300
2018-04-01T07:13:58.715Z,99306
2018-04-01T07:16:26.112Z,99304
2018-04-01T07:18:53.527Z,99318
2018-04-01T07:21:20.908Z,99320
2018-04-01T07:23:48.332Z,99314
2018-04-01T07:26:15.717Z,99319
2018-04-01T07:28:43.082Z,99316
2018-04-01T07:31:10.480Z,99328
2018-04-01T07:33:38.648Z,99313
2018-04-01T07:36:06.796Z,99318
2018-04-01T07:38:34.187Z,99327
2018-04-01T07:41:02.364Z,99339
2018-04-01T07:43:29.744Z,99326
2018-04-01T07:45:57.115Z,99330
2018-04-01T07:48:24.511Z,99335
2018-04-01T07:50:52.680Z,99341
2018-04-01T07:53:20.836Z,99346
2018-04-01T07:55:48.203Z,99347
2018-04-01T07:58:15.599Z,99356
2018-04-01T08:00:43.052Z,99356
2018-04-01T08:03:11.194Z,99361
2018-04-01T08:05:39.338Z,99364
2018-04-01T08:08:06.755Z,99372
2018-04-01T08:10:34.156Z,99374
2018-04-01T08:13:01.552Z,99393
2018-04-01T08:15:28.958Z,99371
2018-04-01T08:17:56.332Z,99380
2018-04-01T08:20:24.120Z,99385
2018-04-01T08:22:51.538Z,99387
2018-04-01T08:25:18.944Z,99390
2018-04-01T08:27:46.327Z,99382
2018-04-01T08:30:13.757Z,99386
2018-04-01T08:32:41.135Z,99386
2018-04-01T08:35:08.511Z,99403
2018-04-01T08:37:35.916Z,99401
2018-04-01T08:40:03.389Z,99404
2018-04-01T08:42:31.511Z,99403
2018-04-01T08:44:59.677Z,99416
2018-04-01T08:47:27.079Z,99420
2018-04-01T08:49:54.447Z,99425
2018-04-01T08:52:21.831Z,99421
2018-04-01T08:54:49.236Z,99440
2018-04-01T08:57:16.630Z,99424
2018-04-01T08:59:44.029Z,99435
2018-04-01T09:02:11.433Z,99436
2018-04-01T09:04:38.807Z,99439
2018-04-01T09:07:06.183Z,99451
2018-04-01T09:09:34.391Z,99452
2018-04-01T09:12:01.777Z,99455
2018-04-01T09:14:29.181Z,99459
2018-04-01T09:16:56.588Z,99458
2018-04-01T09:19:23.975Z,99466
2018-04-01T09:21:52.184Z,99462
2018-04-01T09:24:19.641Z,99474
2018-04-01T09:26:47.102Z,99468
2018-04-01T09:29:14.483Z,99474
2018-04-01T09:31:41.892Z,99467
2018-04-01T09:34:09.271Z,99481
2018-04-01T09:36:36.651Z,99493
2018-04-01T09:39:04.075Z,99487
2018-04-01T09:41:31.463Z,99484
2018-04-01T09:43:58.889Z,99501
2018-04-01T09:46:26.264Z,99510
2018-04-01T09:48:53.671Z,99518
2018-04-01T09:51:21.066Z,99512
2018-04-01T09:53:48.451Z,99516
2018-04-01T09:56:16.691Z,99526
2018-04-01T09:58:44.090Z,99505
2018-04-01T10:01:13.932Z,99529
2018-04-01T10:03:42.109Z,99524
2018-04-01T10:06:10.228Z,99525
2018-04-01T10:08:38.791Z,99522
2018-04-01T10:11:07.300Z,99536
2018-04-01T10:13:36.191Z,99554
2018-04-01T10:16:05.102Z,99556
2018-04-01T10:18:33.220Z,99554
2018-04-01T10:21:01.364Z,99545
2018-04-01T10:23:29.522Z,99568
2018-04-01T10:25:57.675Z,99561
2018-04-01T10:28:26.571Z,99564
2018-04-01T10:30:55.850Z,99563
2018-04-01T10:33:25.016Z,99571
2018-04-01T10:35:53.139Z,99575
2018-04-01T10:38:22.036Z,99578
2018-04-01T10:40:50.239Z,99573
2018-04-01T10:43:18.420Z,99579
2018-04-01T10:45:46.551Z,99579
2018-04-01T10:48:15.444Z,99584
2018-04-01T10:50:43.593Z,99582
2018-04-01T10:53:11.732Z,99598
2018-04-01T10:55:39.139Z,99593
2018-04-01T10:58:07.311Z,99617
2018-04-01T11:00:35.464Z,99607
2018-04-01T11:03:02.889Z,99613
2018-04-01T11:05:30.264Z,99608
2018-04-01T11:07:57.663Z,99600
2018-04-01T11:10:25.033Z,99606
2018-04-01T11:12:52.463Z,99615
2018-04-01T11:15:19.934Z,99629
2018-04-01T11:17:47.316Z,99615
2018-04-01T11:20:14.745Z,99616
2018-04-01T11:22:42.137Z,99629
2018-04-01T11:28:09.572Z,99631
2018-04-01T11:30:36.948Z,99640
2018-04-01T11:33:04.343Z,99646
2018-04-01T11:35:31.717Z,99642
2018-04-01T11:37:59.892Z,99641
2018-04-01T11:40:28.030Z,99658
2018-04-01T11:42:55.414Z,99649
2018-04-01T11:45:23.620Z,99642
2018-04-01T11:47:51.000Z,99651
2018-04-01T11:50:18.391Z,99654
2018-04-01T11:52:45.790Z,99646
2018-04-01T11:55:13.211Z,99657
2018-04-01T11:57:40.628Z,99665
2018-04-01T12:00:08.011Z,99653
2018-04-01T12:02:35.421Z,99667
2018-04-01T12:05:02.866Z,99664
2018-04-01T12:07:30.284Z,99659
2018-04-01T12:09:58.431Z,99678
2018-04-01T12:12:25.951Z,99674
2018-04-01T12:14:53.327Z,99673
2018-04-01T12:17:20.738Z,99662
2018-04-01T12:19:48.127Z,99680
2018-04-01T12:22:15.505Z,99675
2018-04-01T12:24:42.913Z,99669
2018-04-01T12:27:10.373Z,99677
2018-04-01T12:29:37.751Z,99683
2018-04-01T12:32:05.181Z,99695
2018-04-01T12:34:32.561Z,99689
2018-04-01T12:36:59.977Z,99680
2018-04-01T12:39:28.160Z,99688
2018-04-01T12:41:55.535Z,99686
2018-04-01T12:44:22.976Z,99696
2018-04-01T12:46:50.382Z,99685
2018-04-01T12:49:17.893Z,99698
2018-04-01T12:51:45.340Z,99704
2018-04-01T12:54:12.724Z,99707
2018-04-01T12:56:40.124Z,99701
2018-04-01T12:59:09.204Z,99704
2018-04-01T13:01:36.599Z,99705
2018-04-01T13:04:04.052Z,99712
2018-04-01T13:06:31.519Z,99707
2018-04-01T13:08:58.919Z,99708
2018-04-01T13:11:26.332Z,99729
2018-04-01T13:13:53.707Z,99733
2018-04-01T13:16:21.083Z,99729
2018-04-01T13:18:48.587Z,99745
2018-04-01T13:21:16.047Z,99744
2018-04-01T13:23:43.420Z,99739
2018-04-01T13:26:10.798Z,99750
2018-04-01T13:28:38.194Z,99752
2018-04-01T13:31:05.567Z,99743
2018-04-01T13:33:33.629Z,99750
2018-04-01T13:36:01.036Z,99754
2018-04-01T13:38:28.423Z,99754
2018-04-01T13:40:55.815Z,99757
2018-04-01T13:43:23.204Z,99764
2018-04-01T13:45:50.599Z,99764
2018-04-01T13:48:18.013Z,99764
2018-04-01T13:50:45.397Z,99773
2018-04-01T13:53:13.591Z,99783
2018-04-01T13:55:41.039Z,99784
2018-04-01T13:58:08.416Z,99777
2018-04-01T14:00:35.783Z,99777
2018-04-01T14:03:03.219Z,99779
2018-04-01T14:05:30.721Z,99787
2018-04-01T14:07:58.119Z,99789
2018-04-01T14:10:25.586Z,99789
2018-04-01T14:12:52.964Z,99791
2018-04-01T14:15:20.429Z,99796
2018-04-01T14:17:48.099Z,99788
2018-04-01T14:20:15.504Z,99787
2018-04-01T14:22:42.871Z,99788
2018-04-01T14:25:10.313Z,99791
2018-04-01T14:27:37.696Z,99799
2018-04-01T14:30:05.071Z,99788
2018-04-01T14:32:32.585Z,99801
2018-04-01T14:35:00.045Z,99804
2018-04-01T14:37:27.429Z,99809
2018-04-01T14:39:54.819Z,99824
2018-04-01T14:42:22.988Z,99810
2018-04-01T14:44:51.144Z,99821
2018-04-01T14:47:18.520Z,99821
2018-04-01T14:49:46.680Z,99830
2018-04-01T14:52:14.916Z,99832
2018-04-01T14:54:42.331Z,99830
2018-04-01T14:57:09.722Z,99839
2018-04-01T14:59:37.268Z,99836
2018-04-01T15:02:04.732Z,99842
2018-04-01T15:04:32.110Z,99847
2018-04-01T15:06:59.523Z,99839
2018-04-01T15:09:26.909Z,99852
2018-04-01T15:11:54.299Z,99855
2018-04-01T15:14:22.519Z,99839
2018-04-01T15:16:50.631Z,99848
2018-04-01T15:19:18.024Z,99853
2018-04-01T15:21:45.395Z,99845
2018-04-01T15:24:12.785Z,99847
2018-04-01T15:26:40.224Z,99847
2018-04-01T15:29:07.648Z,99855
2018-04-01T15:31:35.896Z,99864
2018-04-01T15:34:04.187Z,99860
2018-04-01T15:36:31.604Z,99863
2018-04-01T15:38:58.982Z,99879
2018-04-01T15:41:27.138Z,99859
2018-04-01T15:43:54.645Z,99870
2018-04-01T15:46:22.028Z,99868
2018-04-01T15:48:49.431Z,99867
2018-04-01T15:51:17.627Z,99869
2018-04-01T15:53:45.020Z,99876
2018-04-01T15:56:12.387Z,99883
2018-04-01T16:05:37.556Z,99900
2018-04-01T16:08:05.764Z,99907
2018-04-01T16:10:33.139Z,99907
2018-04-01T16:13:00.587Z,99907
2018-04-01T16:15:28.031Z,99916
2018-04-01T16:17:55.521Z,99926
2018-04-01T16:20:23.308Z,99936
2018-04-01T16:22:51.451Z,99916
2018-04-01T16:25:18.824Z,99936
2018-04-01T16:27:46.219Z,99936
2018-04-01T16:30:13.627Z,99924
2018-04-01T16:32:40.996Z,99925
2018-04-01T16:35:08.370Z,99928
2018-04-01T16:37:36.575Z,99933
2018-04-01T16:40:04.015Z,99930
2018-04-01T16:42:31.399Z,99944
2018-04-01T16:44:58.792Z,99929
2018-04-01T16:47:27.052Z,99949
2018-04-01T16:49:54.458Z,99945
2018-04-01T16:52:21.840Z,99942
2018-04-01T16:54:49.236Z,99944
2018-04-01T16:57:17.387Z,99941
2018-04-01T16:59:44.799Z,99954
2018-04-01T17:02:12.255Z,99955
2018-04-01T17:04:39.715Z,99965
2018-04-01T17:07:07.091Z,99965
2018-04-01T17:09:34.605Z,99965
2018-04-01T17:12:01.989Z,99971
2018-04-01T17:14:29.388Z,99969
2018-04-01T17:16:57.531Z,99975
2018-04-01T17:19:24.938Z,99973
2018-04-01T17:21:52.330Z,99978
2018-04-01T17:24:19.751Z,99972
2018-04-01T17:26:47.176Z,100001
2018-04-01T17:29:15.315Z,99983
2018-04-01T17:31:42.720Z,99981
2018-04-01T17:34:10.927Z,99988
2018-04-01T17:36:38.369Z,99998
2018-04-01T17:39:06.174Z,99997
2018-04-01T17:41:33.572Z,100007
2018-04-01T17:44:01.715Z,99998
2018-04-01T17:46:29.152Z,100003
2018-04-01T17:48:56.570Z,100007
2018-04-01T17:51:23.951Z,100015
2018-04-01T17:53:51.344Z,100008
2018-04-01T17:56:18.755Z,100007
2018-04-01T17:58:46.152Z,100028
2018-04-01T18:01:13.676Z,100016
2018-04-01T18:03:41.116Z,100028
2018-04-01T18:06:08.464Z,100034
2018-04-01T18:08:35.907Z,100028
2018-04-01T18:11:03.284Z,100040
2018-04-01T18:13:30.663Z,100027
2018-04-01T18:15:58.139Z,100035
2018-04-01T18:18:25.521Z,100030
2018-04-01T18:20:52.896Z,100038
2018-04-01T18:23:20.291Z,100047
2018-04-01T18:25:47.689Z,100042
2018-04-01T18:28:15.107Z,100045
2018-04-01T18:30:42.523Z,100045
2018-04-01T18:33:09.963Z,100051
2018-04-01T18:35:37.771Z,100053
2018-04-01T18:38:05.195Z,100057
2018-04-01T18:40:32.591Z,100058
2018-04-01T18:42:59.968Z,100061
2018-04-01T18:45:28.143Z,100067
2018-04-01T18:47:56.299Z,100067
2018-04-01T18:50:23.676Z,100069
2018-04-01T18:52:51.882Z,100075
2018-04-01T18:55:19.260Z,100067
2018-04-01T18:57:46.632Z,100079
2018-04-01T19:00:14.123Z,100078
2018-04-01T19:02:41.491Z,100077
2018-04-01T19:05:08.871Z,100084
2018-04-01T19:07:36.298Z,100084
2018-04-01T19:10:03.675Z,100083
2018-04-01T19:12:31.072Z,100079
2018-04-01T19:14:59.248Z,100089
2018-04-01T19:17:28.296Z,100097
2018-04-01T19:19:56.543Z,100088
2018-04-01T19:22:24.771Z,100088
2018-04-01T19:24:52.888Z,100086
2018-04-01T19:27:21.002Z,100088
2018-04-01T19:29:49.148Z,100102
2018-04-01T19:32:17.320Z,100098
2018-04-01T19:34:45.492Z,100091
2018-04-01T19:37:18.502Z,100092
2018-04-01T19:39:46.644Z,100091
2018-04-01T19:42:14.964Z,100084
2018-04-01T19:44:43.196Z,100087
2018-04-01T19:47:11.371Z,100092
2018-04-01T19:49:39.487Z,100081
2018-04-01T19:52:07.632Z,100091
2018-04-01T19:54:35.775Z,100086
2018-04-01T19:57:04.351Z,100090
2018-04-01T19:59:32.524Z,100091
2018-04-01T20:02:00.659Z,100084
2018-04-01T20:04:28.896Z,100087
2018-04-01T20:06:57.068Z,100089
2018-04-01T20:09:25.229Z,100099
2018-04-01T20:11:53.356Z,100102
2018-04-01T20:14:21.498Z,100103
2018-04-01T20:16:49.641Z,100108
2018-04-01T20:19:17.765Z,100096
2018-04-01T20:21:45.991Z,100096
2018-04-01T20:24:14.207Z,100098
2018-04-01T20:26:42.328Z,100107
2018-04-01T20:29:10.461Z,100111
2018-04-01T20:31:38.608Z,100116
2018-04-01T20:34:06.746Z,100112
2018-04-01T20:36:34.895Z,100111
2018-04-01T20:39:03.794Z,100121
2018-04-01T20:41:32.001Z,100115
2018-04-01T20:44:00.132Z,100110
2018-04-01T20:46:29.019Z,100119
2018-04-01T20:48:57.916Z,100113
2018-04-01T20:51:26.829Z,100116
2018-04-01T20:53:55.004Z,100119
2018-04-01T20:56:23.208Z,100110
2018-04-01T20:58:51.363Z,100115
2018-04-01T21:01:19.500Z,100130
2018-04-01T21:03:48.389Z,100120
2018-04-01T21:06:17.405Z,100125
2018-04-01T21:08:45.692Z,100132
2018-04-01T21:11:13.822Z,100133
2018-04-01T21:13:42.836Z,100137
2018-04-01T21:16:11.011Z,100128
2018-04-01T21:18:39.169Z,100127
2018-04-01T21:21:08.074Z,100137
2018-04-01T21:23:36.244Z,100144
2018-04-01T21:26:04.710Z,100145
2018-04-01T21:28:33.596Z,100146
2018-04-01T21:31:02.479Z,100154
2018-04-01T21:33:31.390Z,100165
2018-04-01T21:35:59.528Z,100165
2018-04-01T21:38:27.649Z,100149
2018-04-01T21:40:55.820Z,100152
2018-04-01T21:43:23.971Z,100147
2018-04-01T21:45:52.140Z,100148
2018-04-01T21:48:21.055Z,100152
2018-04-01T21:50:49.200Z,100141
2018-04-01T21:53:18.130Z,100133
2018-04-01T21:55:46.257Z,100131
2018-04-01T21:58:15.187Z,100136
2018-04-01T22:00:43.328Z,100141
2018-04-01T22:03:12.218Z,100130
2018-04-01T22:05:41.132Z,100143
2018-04-01T22:08:09.288Z,100139
2018-04-01T22:10:37.424Z,100141
2018-04-01T22:13:05.549Z,100134
2018-04-01T22:15:33.700Z,100138
2018-04-01T22:18:03.011Z,100144
2018-04-01T22:20:31.202Z,100141
2018-04-01T22:23:13.399Z,100147
2018-04-01T22:25:41.632Z,100144
2018-04-01T22:28:10.547Z,100163
2018-04-01T22:30:38.687Z,100162
2018-04-01T22:33:06.828Z,100147
2018-04-01T22:35:35.076Z,100161
2018-04-01T22:38:03.214Z,100161
2018-04-01T22:40:32.104Z,100169
2018-04-01T22:43:01.014Z,100173
2018-04-01T22:45:29.127Z,100178
2018-04-01T22:47:57.289Z,100181
2018-04-01T22:50:26.105Z,100187
2018-04-01T22:52:54.261Z,100175
2018-04-01T22:55:22.401Z,100186
2018-04-01T22:57:50.573Z,100186
2018-04-01T23:00:18.740Z,100187
2018-04-01T23:02:46.919Z,100187
2018-04-01T23:05:15.039Z,100186
2018-04-01T23:07:43.272Z,100193
2018-04-01T23:10:11.828Z,100190
2018-04-01T23:12:40.739Z,100197
2018-04-01T23:15:09.163Z,100191
2018-04-01T23:17:37.345Z,100192
2018-04-01T23:20:05.569Z,100199
2018-04-01T23:22:33.715Z,100194
2018-04-01T23:25:02.623Z,100203
2018-04-01T23:27:30.780Z,100203
2018-04-01T23:29:59.670Z,100205
2018-04-01T23:32:28.599Z,100211
2018-04-01T23:34:56.760Z,100210
2018-04-01T23:37:24.880Z,100219
2018-04-01T23:39:53.095Z,100214
2018-04-01T23:42:21.272Z,100218
2018-04-01T23:44:49.438Z,100227
2018-04-01T23:47:17.628Z,100214
2018-04-01T23:49:45.783Z,100223
2018-04-01T23:52:13.944Z,100231
2018-04-01T23:54:42.836Z,100238
2018-04-01T23:57:11.735Z,100231
2018-04-01T23:59:39.879Z,100233
